sensor_id;sensor_type;location;lat;lon;timestamp;temperature;humidity
60293;DHT22;52402;52.670;6.750;2023-04-03T00:02:23;2.70;99.90
60293;DHT22;52402;52.670;6.750;2023-04-03T00:04:53;2.60;99.90
60293;DHT22;52402;52.670;6.750;2023-04-03T00:07:18;2.60;99.90
60293;DHT22;52402;52.670;6.750;2023-04-03T00:09:47;2.40;99.90
60293;DHT22;52402;52.670;6.750;2023-04-03T00:12:17;2.50;99.90
60293;DHT22;52402;52.670;6.750;2023-04-03T00:14:45;2.50;99.90
60293;DHT22;52402;52.670;6.750;2023-04-03T00:17:10;2.40;99.90
60293;DHT22;52402;52.670;6.750;2023-04-03T00:19:36;2.40;99.90
60293;DHT22;52402;52.670;6.750;2023-04-03T00:22:09;2.40;99.90
60293;DHT22;52402;52.670;6.750;2023-04-03T00:24:41;2.40;99.90
60293;DHT22;52402;52.670;6.750;2023-04-03T00:27:14;2.40;99.90
60293;DHT22;52402;52.670;6.750;2023-04-03T00:29:45;2.40;99.90
60293;DHT22;52402;52.670;6.750;2023-04-03T00:32:16;2.40;99.90
60293;DHT22;52402;52.670;6.750;2023-04-03T00:34:46;2.40;99.90
60293;DHT22;52402;52.670;6.750;2023-04-03T00:37:16;2.30;99.90
60293;DHT22;52402;52.670;6.750;2023-04-03T00:39:49;2.30;99.90
60293;DHT22;52402;52.670;6.750;2023-04-03T00:42:19;2.30;99.90
60293;DHT22;52402;52.670;6.750;2023-04-03T00:47:38;2.30;99.90
60293;DHT22;52402;52.670;6.750;2023-04-03T00:50:12;2.20;99.90
60293;DHT22;52402;52.670;6.750;2023-04-03T00:52:43;2.10;99.90
60293;DHT22;52402;52.670;6.750;2023-04-03T00:55:16;2.10;99.90
60293;DHT22;52402;52.670;6.750;2023-04-03T00:57:49;2.10;99.90
60293;DHT22;52402;52.670;6.750;2023-04-03T01:00:21;2.10;99.90
60293;DHT22;52402;52.670;6.750;2023-04-03T01:02:54;2.10;99.90
60293;DHT22;52402;52.670;6.750;2023-04-03T01:05:24;2.00;99.90
60293;DHT22;52402;52.670;6.750;2023-04-03T01:07:55;2.00;99.90
60293;DHT22;52402;52.670;6.750;2023-04-03T01:10:28;2.00;99.90
60293;DHT22;52402;52.670;6.750;2023-04-03T01:12:57;1.90;99.90
60293;DHT22;52402;52.670;6.750;2023-04-03T01:15:31;1.90;99.90
60293;DHT22;52402;52.670;6.750;2023-04-03T01:18:02;1.90;99.90
60293;DHT22;52402;52.670;6.750;2023-04-03T01:26:56;1.80;99.90
60293;DHT22;52402;52.670;6.750;2023-04-03T01:29:26;1.80;99.90
60293;DHT22;52402;52.670;6.750;2023-04-03T01:32:03;1.80;99.90
60293;DHT22;52402;52.670;6.750;2023-04-03T01:34:40;1.80;99.90
60293;DHT22;52402;52.670;6.750;2023-04-03T01:37:10;1.70;99.90
60293;DHT22;52402;52.670;6.750;2023-04-03T01:39:38;1.70;99.90
60293;DHT22;52402;52.670;6.750;2023-04-03T01:42:08;1.70;99.90
60293;DHT22;52402;52.670;6.750;2023-04-03T01:44:36;1.70;99.90
60293;DHT22;52402;52.670;6.750;2023-04-03T01:47:02;1.70;99.90
60293;DHT22;52402;52.670;6.750;2023-04-03T01:49:35;1.60;99.90
60293;DHT22;52402;52.670;6.750;2023-04-03T01:52:06;1.60;99.90
60293;DHT22;52402;52.670;6.750;2023-04-03T01:54:31;1.60;99.90
60293;DHT22;52402;52.670;6.750;2023-04-03T01:56:59;1.60;99.90
60293;DHT22;52402;52.670;6.750;2023-04-03T01:59:31;1.50;99.90
60293;DHT22;52402;52.670;6.750;2023-04-03T02:01:59;1.50;99.90
60293;DHT22;52402;52.670;6.750;2023-04-03T02:04:28;1.50;99.90
60293;DHT22;52402;52.670;6.750;2023-04-03T02:07:00;1.50;99.90
60293;DHT22;52402;52.670;6.750;2023-04-03T02:09:33;1.40;99.90
60293;DHT22;52402;52.670;6.750;2023-04-03T02:12:05;1.40;99.90
60293;DHT22;52402;52.670;6.750;2023-04-03T02:14:33;1.40;99.90
60293;DHT22;52402;52.670;6.750;2023-04-03T02:17:06;1.30;99.90
60293;DHT22;52402;52.670;6.750;2023-04-03T02:19:37;1.30;99.90
60293;DHT22;52402;52.670;6.750;2023-04-03T02:22:09;1.30;99.90
60293;DHT22;52402;52.670;6.750;2023-04-03T02:24:45;1.30;99.90
60293;DHT22;52402;52.670;6.750;2023-04-03T02:27:15;1.20;99.90
60293;DHT22;52402;52.670;6.750;2023-04-03T02:29:45;1.10;99.90
60293;DHT22;52402;52.670;6.750;2023-04-03T02:32:13;1.10;99.90
60293;DHT22;52402;52.670;6.750;2023-04-03T02:34:48;1.10;99.90
60293;DHT22;52402;52.670;6.750;2023-04-03T02:37:19;1.00;99.90
60293;DHT22;52402;52.670;6.750;2023-04-03T02:39:47;0.90;99.90
60293;DHT22;52402;52.670;6.750;2023-04-03T02:42:15;0.90;99.90
60293;DHT22;52402;52.670;6.750;2023-04-03T02:44:45;0.90;99.90
60293;DHT22;52402;52.670;6.750;2023-04-03T02:47:15;0.80;99.90
60293;DHT22;52402;52.670;6.750;2023-04-03T02:49:46;0.80;99.90
60293;DHT22;52402;52.670;6.750;2023-04-03T02:52:17;0.70;99.90
60293;DHT22;52402;52.670;6.750;2023-04-03T02:54:49;0.60;99.90
60293;DHT22;52402;52.670;6.750;2023-04-03T02:57:17;0.60;99.90
60293;DHT22;52402;52.670;6.750;2023-04-03T02:59:53;0.60;99.90
60293;DHT22;52402;52.670;6.750;2023-04-03T03:02:23;0.60;99.90
60293;DHT22;52402;52.670;6.750;2023-04-03T03:04:54;0.50;99.90
60293;DHT22;52402;52.670;6.750;2023-04-03T03:07:22;0.50;99.90
60293;DHT22;52402;52.670;6.750;2023-04-03T03:09:52;0.40;99.90
60293;DHT22;52402;52.670;6.750;2023-04-03T03:12:23;0.30;99.90
60293;DHT22;52402;52.670;6.750;2023-04-03T03:14:53;0.30;99.90
60293;DHT22;52402;52.670;6.750;2023-04-03T03:17:20;0.20;99.90
60293;DHT22;52402;52.670;6.750;2023-04-03T03:19:50;0.20;99.90
60293;DHT22;52402;52.670;6.750;2023-04-03T03:22:21;0.20;99.90
60293;DHT22;52402;52.670;6.750;2023-04-03T03:24:53;0.20;99.90
60293;DHT22;52402;52.670;6.750;2023-04-03T03:27:23;0.20;99.90
60293;DHT22;52402;52.670;6.750;2023-04-03T03:29:56;0.20;99.90
60293;DHT22;52402;52.670;6.750;2023-04-03T03:32:24;0.20;99.90
60293;DHT22;52402;52.670;6.750;2023-04-03T03:34:52;0.10;99.90
60293;DHT22;52402;52.670;6.750;2023-04-03T03:37:20;0.20;99.90
60293;DHT22;52402;52.670;6.750;2023-04-03T03:39:50;0.10;99.90
60293;DHT22;52402;52.670;6.750;2023-04-03T03:42:20;0.00;99.90
60293;DHT22;52402;52.670;6.750;2023-04-03T03:44:51;-0.10;99.90
60293;DHT22;52402;52.670;6.750;2023-04-03T03:47:24;0.00;99.90
60293;DHT22;52402;52.670;6.750;2023-04-03T03:49:56;0.00;99.90
60293;DHT22;52402;52.670;6.750;2023-04-03T03:52:27;0.00;99.90
60293;DHT22;52402;52.670;6.750;2023-04-03T03:54:57;-0.10;99.90
60293;DHT22;52402;52.670;6.750;2023-04-03T03:57:27;-0.20;99.90
60293;DHT22;52402;52.670;6.750;2023-04-03T03:59:59;-0.20;99.90
60293;DHT22;52402;52.670;6.750;2023-04-03T04:02:25;-0.20;99.90
60293;DHT22;52402;52.670;6.750;2023-04-03T04:05:00;-0.10;99.90
60293;DHT22;52402;52.670;6.750;2023-04-03T04:07:30;-0.10;99.90
60293;DHT22;52402;52.670;6.750;2023-04-03T04:10:02;-0.20;99.90
60293;DHT22;52402;52.670;6.750;2023-04-03T04:12:30;-0.20;99.90
60293;DHT22;52402;52.670;6.750;2023-04-03T04:15:03;-0.20;99.90
60293;DHT22;52402;52.670;6.750;2023-04-03T04:17:29;-0.20;99.90
60293;DHT22;52402;52.670;6.750;2023-04-03T04:19:59;-0.20;99.90
60293;DHT22;52402;52.670;6.750;2023-04-03T04:22:32;-0.30;99.90
60293;DHT22;52402;52.670;6.750;2023-04-03T04:25:00;-0.30;99.90
60293;DHT22;52402;52.670;6.750;2023-04-03T04:27:30;-0.20;99.90
60293;DHT22;52402;52.670;6.750;2023-04-03T04:30:03;-0.30;99.90
60293;DHT22;52402;52.670;6.750;2023-04-03T04:32:36;-0.30;99.90
60293;DHT22;52402;52.670;6.750;2023-04-03T04:35:09;-0.30;99.90
60293;DHT22;52402;52.670;6.750;2023-04-03T04:37:42;-0.40;99.90
60293;DHT22;52402;52.670;6.750;2023-04-03T04:40:13;-0.40;99.90
60293;DHT22;52402;52.670;6.750;2023-04-03T04:42:46;-0.40;99.90
60293;DHT22;52402;52.670;6.750;2023-04-03T04:45:17;-0.40;99.90
60293;DHT22;52402;52.670;6.750;2023-04-03T04:47:47;-0.40;99.90
60293;DHT22;52402;52.670;6.750;2023-04-03T04:50:19;-0.50;99.90
60293;DHT22;52402;52.670;6.750;2023-04-03T04:52:49;-0.40;99.90
60293;DHT22;52402;52.670;6.750;2023-04-03T04:55:26;-0.40;99.90
60293;DHT22;52402;52.670;6.750;2023-04-03T04:58:02;-0.40;99.90
60293;DHT22;52402;52.670;6.750;2023-04-03T05:00:32;-0.40;99.90
60293;DHT22;52402;52.670;6.750;2023-04-03T05:03:07;-0.40;99.90
60293;DHT22;52402;52.670;6.750;2023-04-03T05:05:37;-0.40;99.90
60293;DHT22;52402;52.670;6.750;2023-04-03T05:08:05;-0.40;99.90
60293;DHT22;52402;52.670;6.750;2023-04-03T05:10:34;-0.40;99.90
60293;DHT22;52402;52.670;6.750;2023-04-03T05:13:04;-0.40;99.90
60293;DHT22;52402;52.670;6.750;2023-04-03T05:15:37;-0.40;99.90
60293;DHT22;52402;52.670;6.750;2023-04-03T05:18:07;-0.40;99.90
60293;DHT22;52402;52.670;6.750;2023-04-03T05:20:40;-0.30;99.90
60293;DHT22;52402;52.670;6.750;2023-04-03T05:23:10;-0.40;99.90
60293;DHT22;52402;52.670;6.750;2023-04-03T05:25:44;-0.40;99.90
60293;DHT22;52402;52.670;6.750;2023-04-03T05:28:14;-0.40;99.90
60293;DHT22;52402;52.670;6.750;2023-04-03T05:30:47;-0.50;99.90
60293;DHT22;52402;52.670;6.750;2023-04-03T05:33:27;-0.40;99.90
60293;DHT22;52402;52.670;6.750;2023-04-03T05:35:55;-0.30;99.90
60293;DHT22;52402;52.670;6.750;2023-04-03T05:38:26;-0.40;99.90
60293;DHT22;52402;52.670;6.750;2023-04-03T05:40:56;-0.40;99.90
60293;DHT22;52402;52.670;6.750;2023-04-03T05:43:26;-0.30;99.90
60293;DHT22;52402;52.670;6.750;2023-04-03T05:45:57;-0.30;99.90
60293;DHT22;52402;52.670;6.750;2023-04-03T05:48:30;-0.40;99.90
60293;DHT22;52402;52.670;6.750;2023-04-03T05:51:00;-0.30;99.90
60293;DHT22;52402;52.670;6.750;2023-04-03T05:53:30;-0.20;99.90
60293;DHT22;52402;52.670;6.750;2023-04-03T05:56:04;-0.20;99.90
60293;DHT22;52402;52.670;6.750;2023-04-03T05:58:36;-0.10;99.90
60293;DHT22;52402;52.670;6.750;2023-04-03T06:01:04;-0.10;99.90
60293;DHT22;52402;52.670;6.750;2023-04-03T06:03:38;-0.10;99.90
60293;DHT22;52402;52.670;6.750;2023-04-03T06:06:10;0.00;99.90
60293;DHT22;52402;52.670;6.750;2023-04-03T06:08:39;0.20;99.90
60293;DHT22;52402;52.670;6.750;2023-04-03T06:11:10;0.40;99.90
60293;DHT22;52402;52.670;6.750;2023-04-03T06:13:38;0.40;99.90
60293;DHT22;52402;52.670;6.750;2023-04-03T06:16:09;0.50;99.90
60293;DHT22;52402;52.670;6.750;2023-04-03T06:18:39;0.60;99.90
60293;DHT22;52402;52.670;6.750;2023-04-03T06:21:11;0.50;99.90
60293;DHT22;52402;52.670;6.750;2023-04-03T06:23:42;0.60;99.90
60293;DHT22;52402;52.670;6.750;2023-04-03T06:26:12;0.60;99.90
60293;DHT22;52402;52.670;6.750;2023-04-03T06:28:40;0.70;99.90
60293;DHT22;52402;52.670;6.750;2023-04-03T06:31:10;0.80;99.90
60293;DHT22;52402;52.670;6.750;2023-04-03T06:33:40;0.80;99.90
60293;DHT22;52402;52.670;6.750;2023-04-03T06:36:14;0.90;99.90
60293;DHT22;52402;52.670;6.750;2023-04-03T06:38:44;0.80;99.90
60293;DHT22;52402;52.670;6.750;2023-04-03T06:41:14;0.90;99.90
60293;DHT22;52402;52.670;6.750;2023-04-03T06:43:46;1.00;99.90
60293;DHT22;52402;52.670;6.750;2023-04-03T06:46:20;1.10;99.90
60293;DHT22;52402;52.670;6.750;2023-04-03T06:48:52;1.10;99.90
60293;DHT22;52402;52.670;6.750;2023-04-03T06:51:25;1.20;99.90
60293;DHT22;52402;52.670;6.750;2023-04-03T06:53:58;1.30;99.90
60293;DHT22;52402;52.670;6.750;2023-04-03T06:56:32;1.30;99.90
60293;DHT22;52402;52.670;6.750;2023-04-03T06:59:02;1.40;99.90
60293;DHT22;52402;52.670;6.750;2023-04-03T07:01:30;1.50;99.90
60293;DHT22;52402;52.670;6.750;2023-04-03T07:04:00;1.60;99.90
60293;DHT22;52402;52.670;6.750;2023-04-03T07:06:30;1.70;99.90
60293;DHT22;52402;52.670;6.750;2023-04-03T07:09:01;1.80;99.90
60293;DHT22;52402;52.670;6.750;2023-04-03T07:11:33;1.90;99.90
60293;DHT22;52402;52.670;6.750;2023-04-03T07:14:05;2.00;99.90
60293;DHT22;52402;52.670;6.750;2023-04-03T07:16:34;2.10;99.90
60293;DHT22;52402;52.670;6.750;2023-04-03T07:19:06;2.10;99.90
60293;DHT22;52402;52.670;6.750;2023-04-03T07:21:36;2.20;99.90
60293;DHT22;52402;52.670;6.750;2023-04-03T07:24:09;2.30;99.90
60293;DHT22;52402;52.670;6.750;2023-04-03T07:26:42;2.50;99.90
60293;DHT22;52402;52.670;6.750;2023-04-03T07:29:10;2.50;99.90
60293;DHT22;52402;52.670;6.750;2023-04-03T07:31:40;2.60;99.90
60293;DHT22;52402;52.670;6.750;2023-04-03T07:34:13;2.70;99.90
60293;DHT22;52402;52.670;6.750;2023-04-03T07:36:46;2.80;99.90
60293;DHT22;52402;52.670;6.750;2023-04-03T07:39:12;2.80;99.90
60293;DHT22;52402;52.670;6.750;2023-04-03T07:41:40;2.90;99.90
60293;DHT22;52402;52.670;6.750;2023-04-03T07:44:08;3.00;99.90
60293;DHT22;52402;52.670;6.750;2023-04-03T07:46:36;3.10;99.90
60293;DHT22;52402;52.670;6.750;2023-04-03T07:49:09;3.20;99.90
60293;DHT22;52402;52.670;6.750;2023-04-03T07:51:37;3.30;99.90
60293;DHT22;52402;52.670;6.750;2023-04-03T07:54:09;3.40;99.90
60293;DHT22;52402;52.670;6.750;2023-04-03T07:56:35;3.50;99.90
60293;DHT22;52402;52.670;6.750;2023-04-03T07:59:05;3.60;99.90
60293;DHT22;52402;52.670;6.750;2023-04-03T08:01:37;3.70;99.90
60293;DHT22;52402;52.670;6.750;2023-04-03T08:04:10;3.80;99.90
60293;DHT22;52402;52.670;6.750;2023-04-03T08:06:41;3.90;99.90
60293;DHT22;52402;52.670;6.750;2023-04-03T08:09:09;4.00;99.90
60293;DHT22;52402;52.670;6.750;2023-04-03T08:11:41;4.20;99.90
60293;DHT22;52402;52.670;6.750;2023-04-03T08:14:11;4.30;99.90
60293;DHT22;52402;52.670;6.750;2023-04-03T08:16:47;4.40;99.90
60293;DHT22;52402;52.670;6.750;2023-04-03T08:19:18;4.50;99.90
60293;DHT22;52402;52.670;6.750;2023-04-03T08:21:46;4.50;99.90
60293;DHT22;52402;52.670;6.750;2023-04-03T08:24:16;4.60;99.90
60293;DHT22;52402;52.670;6.750;2023-04-03T08:26:49;4.70;99.90
60293;DHT22;52402;52.670;6.750;2023-04-03T08:29:19;4.80;99.90
60293;DHT22;52402;52.670;6.750;2023-04-03T08:31:52;4.80;99.90
60293;DHT22;52402;52.670;6.750;2023-04-03T08:34:20;5.00;99.90
60293;DHT22;52402;52.670;6.750;2023-04-03T08:36:51;5.10;99.90
60293;DHT22;52402;52.670;6.750;2023-04-03T08:39:19;5.20;99.90
60293;DHT22;52402;52.670;6.750;2023-04-03T08:41:49;5.30;99.90
60293;DHT22;52402;52.670;6.750;2023-04-03T08:47:47;5.50;99.90
60293;DHT22;52402;52.670;6.750;2023-04-03T08:50:26;5.50;99.90
60293;DHT22;52402;52.670;6.750;2023-04-03T08:52:57;5.60;99.90
60293;DHT22;52402;52.670;6.750;2023-04-03T08:55:51;5.70;99.90
60293;DHT22;52402;52.670;6.750;2023-04-03T08:58:24;5.80;99.90
60293;DHT22;52402;52.670;6.750;2023-04-03T09:00:59;6.00;99.90
60293;DHT22;52402;52.670;6.750;2023-04-03T09:03:31;6.10;99.90
60293;DHT22;52402;52.670;6.750;2023-04-03T09:06:15;6.20;99.90
60293;DHT22;52402;52.670;6.750;2023-04-03T09:09:47;6.30;99.90
60293;DHT22;52402;52.670;6.750;2023-04-03T09:12:29;6.40;99.90
60293;DHT22;52402;52.670;6.750;2023-04-03T09:15:06;6.40;99.90
60293;DHT22;52402;52.670;6.750;2023-04-03T09:21:22;6.60;99.90
60293;DHT22;52402;52.670;6.750;2023-04-03T09:23:56;6.80;99.90
60293;DHT22;52402;52.670;6.750;2023-04-03T09:26:31;6.90;99.90
60293;DHT22;52402;52.670;6.750;2023-04-03T09:29:05;6.90;99.90
60293;DHT22;52402;52.670;6.750;2023-04-03T09:31:46;7.00;99.90
60293;DHT22;52402;52.670;6.750;2023-04-03T09:34:41;7.20;99.90
60293;DHT22;52402;52.670;6.750;2023-04-03T09:37:09;7.30;99.90
60293;DHT22;52402;52.670;6.750;2023-04-03T09:39:55;7.40;99.90
60293;DHT22;52402;52.670;6.750;2023-04-03T09:42:31;7.50;99.90
60293;DHT22;52402;52.670;6.750;2023-04-03T09:45:04;7.60;99.90
60293;DHT22;52402;52.670;6.750;2023-04-03T09:47:39;7.60;99.90
60293;DHT22;52402;52.670;6.750;2023-04-03T09:52:47;7.70;99.90
60293;DHT22;52402;52.670;6.750;2023-04-03T09:55:23;7.80;99.90
60293;DHT22;52402;52.670;6.750;2023-04-03T09:58:05;7.90;99.90
60293;DHT22;52402;52.670;6.750;2023-04-03T10:00:56;7.90;99.90
60293;DHT22;52402;52.670;6.750;2023-04-03T10:03:27;8.00;99.90
60293;DHT22;52402;52.670;6.750;2023-04-03T10:05:57;8.10;99.90
60293;DHT22;52402;52.670;6.750;2023-04-03T10:08:34;8.10;99.90
60293;DHT22;52402;52.670;6.750;2023-04-03T10:11:20;8.20;99.90
60293;DHT22;52402;52.670;6.750;2023-04-03T10:13:54;8.20;99.90
60293;DHT22;52402;52.670;6.750;2023-04-03T10:23:24;8.30;99.90
60293;DHT22;52402;52.670;6.750;2023-04-03T10:26:24;8.40;99.90
60293;DHT22;52402;52.670;6.750;2023-04-03T10:34:48;8.60;99.90
60293;DHT22;52402;52.670;6.750;2023-04-03T10:37:48;8.60;99.90
60293;DHT22;52402;52.670;6.750;2023-04-03T10:40:52;8.80;99.50
60293;DHT22;52402;52.670;6.750;2023-04-03T10:43:50;8.90;99.90
60293;DHT22;52402;52.670;6.750;2023-04-03T10:46:51;8.80;99.10
60293;DHT22;52402;52.670;6.750;2023-04-03T10:56:32;9.00;99.20
60293;DHT22;52402;52.670;6.750;2023-04-03T11:01:56;9.20;99.80
60293;DHT22;52402;52.670;6.750;2023-04-03T11:04:29;9.40;99.90
60293;DHT22;52402;52.670;6.750;2023-04-03T11:07:02;9.50;99.40
60293;DHT22;52402;52.670;6.750;2023-04-03T11:09:40;9.60;98.90
60293;DHT22;52402;52.670;6.750;2023-04-03T11:12:21;9.70;97.70
60293;DHT22;52402;52.670;6.750;2023-04-03T11:14:56;9.80;98.40
60293;DHT22;52402;52.670;6.750;2023-04-03T11:17:33;9.90;98.20
60293;DHT22;52402;52.670;6.750;2023-04-03T11:20:40;10.00;97.50
60293;DHT22;52402;52.670;6.750;2023-04-03T11:23:24;10.00;96.20
60293;DHT22;52402;52.670;6.750;2023-04-03T11:25:59;10.10;97.60
60293;DHT22;52402;52.670;6.750;2023-04-03T11:28:38;10.20;97.90
60293;DHT22;52402;52.670;6.750;2023-04-03T11:31:41;10.30;97.40
60293;DHT22;52402;52.670;6.750;2023-04-03T11:34:35;10.50;97.80
60293;DHT22;52402;52.670;6.750;2023-04-03T11:37:13;10.60;96.10
60293;DHT22;52402;52.670;6.750;2023-04-03T11:39:50;10.60;95.40
60293;DHT22;52402;52.670;6.750;2023-04-03T11:42:42;10.50;94.10
60293;DHT22;52402;52.670;6.750;2023-04-03T11:45:37;10.50;93.70
60293;DHT22;52402;52.670;6.750;2023-04-03T11:48:41;10.60;96.30
60293;DHT22;52402;52.670;6.750;2023-04-03T11:50:55;10.70;94.60
60293;DHT22;52402;52.670;6.750;2023-04-03T11:53:35;10.80;95.00
60293;DHT22;52402;52.670;6.750;2023-04-03T11:56:51;10.80;93.60
60293;DHT22;52402;52.670;6.750;2023-04-03T11:59:36;10.90;94.10
60293;DHT22;52402;52.670;6.750;2023-04-03T12:02:39;11.10;95.50
60293;DHT22;52402;52.670;6.750;2023-04-03T12:05:26;11.20;95.90
60293;DHT22;52402;52.670;6.750;2023-04-03T12:11:33;11.40;94.30
60293;DHT22;52402;52.670;6.750;2023-04-03T12:14:05;11.60;94.10
60293;DHT22;52402;52.670;6.750;2023-04-03T12:16:49;11.70;93.70
60293;DHT22;52402;52.670;6.750;2023-04-03T12:19:40;11.70;93.10
60293;DHT22;52402;52.670;6.750;2023-04-03T12:22:17;11.70;94.10
60293;DHT22;52402;52.670;6.750;2023-04-03T12:24:52;11.80;94.00
60293;DHT22;52402;52.670;6.750;2023-04-03T12:27:31;11.80;92.80
60293;DHT22;52402;52.670;6.750;2023-04-03T12:33:36;12.10;93.20
60293;DHT22;52402;52.670;6.750;2023-04-03T12:36:14;12.30;93.20
60293;DHT22;52402;52.670;6.750;2023-04-03T12:38:53;12.30;92.30
60293;DHT22;52402;52.670;6.750;2023-04-03T12:41:47;12.30;92.50
60293;DHT22;52402;52.670;6.750;2023-04-03T12:45:01;12.40;92.50
60293;DHT22;52402;52.670;6.750;2023-04-03T12:47:30;12.30;90.20
60293;DHT22;52402;52.670;6.750;2023-04-03T12:50:03;12.10;91.60
60293;DHT22;52402;52.670;6.750;2023-04-03T12:52:37;12.30;91.80
60293;DHT22;52402;52.670;6.750;2023-04-03T12:55:14;12.30;92.10
60293;DHT22;52402;52.670;6.750;2023-04-03T12:57:43;12.40;92.00
60293;DHT22;52402;52.670;6.750;2023-04-03T13:00:43;12.50;92.10
60293;DHT22;52402;52.670;6.750;2023-04-03T13:03:24;12.20;91.50
60293;DHT22;52402;52.670;6.750;2023-04-03T13:06:03;12.30;90.70
60293;DHT22;52402;52.670;6.750;2023-04-03T13:08:34;12.20;90.00
60293;DHT22;52402;52.670;6.750;2023-04-03T13:11:05;12.30;90.00
60293;DHT22;52402;52.670;6.750;2023-04-03T13:13:36;12.30;89.50
60293;DHT22;52402;52.670;6.750;2023-04-03T13:16:15;12.10;89.90
60293;DHT22;52402;52.670;6.750;2023-04-03T13:18:42;12.30;87.90
60293;DHT22;52402;52.670;6.750;2023-04-03T13:21:18;12.40;89.70
60293;DHT22;52402;52.670;6.750;2023-04-03T13:23:49;12.60;90.30
60293;DHT22;52402;52.670;6.750;2023-04-03T13:26:20;12.60;90.40
60293;DHT22;52402;52.670;6.750;2023-04-03T13:28:53;12.70;90.50
60293;DHT22;52402;52.670;6.750;2023-04-03T13:31:38;12.80;89.40
60293;DHT22;52402;52.670;6.750;2023-04-03T13:34:21;12.80;88.20
60293;DHT22;52402;52.670;6.750;2023-04-03T13:37:01;13.00;90.90
60293;DHT22;52402;52.670;6.750;2023-04-03T13:39:41;13.00;89.00
60293;DHT22;52402;52.670;6.750;2023-04-03T13:44:48;13.10;90.40
60293;DHT22;52402;52.670;6.750;2023-04-03T13:47:22;13.10;88.10
60293;DHT22;52402;52.670;6.750;2023-04-03T13:50:17;13.20;89.70
60293;DHT22;52402;52.670;6.750;2023-04-03T13:53:11;13.30;90.00
60293;DHT22;52402;52.670;6.750;2023-04-03T13:56:09;13.20;89.20
60293;DHT22;52402;52.670;6.750;2023-04-03T13:59:01;13.20;90.10
60293;DHT22;52402;52.670;6.750;2023-04-03T14:01:37;13.10;88.30
60293;DHT22;52402;52.670;6.750;2023-04-03T14:04:22;13.10;87.50
60293;DHT22;52402;52.670;6.750;2023-04-03T14:06:55;13.10;87.50
60293;DHT22;52402;52.670;6.750;2023-04-03T14:09:24;13.00;86.20
60293;DHT22;52402;52.670;6.750;2023-04-03T14:11:55;13.10;87.10
60293;DHT22;52402;52.670;6.750;2023-04-03T14:14:26;13.00;87.10
60293;DHT22;52402;52.670;6.750;2023-04-03T14:16:57;13.10;87.30
60293;DHT22;52402;52.670;6.750;2023-04-03T14:19:29;13.20;87.60
60293;DHT22;52402;52.670;6.750;2023-04-03T14:22:01;13.30;85.00
60293;DHT22;52402;52.670;6.750;2023-04-03T14:24:34;13.00;84.90
60293;DHT22;52402;52.670;6.750;2023-04-03T14:27:04;13.10;85.10
60293;DHT22;52402;52.670;6.750;2023-04-03T14:29:34;13.00;85.20
60293;DHT22;52402;52.670;6.750;2023-04-03T14:32:02;12.80;84.20
60293;DHT22;52402;52.670;6.750;2023-04-03T14:34:35;13.00;84.30
60293;DHT22;52402;52.670;6.750;2023-04-03T14:37:08;13.20;82.30
60293;DHT22;52402;52.670;6.750;2023-04-03T14:39:37;13.20;82.40
60293;DHT22;52402;52.670;6.750;2023-04-03T14:42:09;13.30;83.70
60293;DHT22;52402;52.670;6.750;2023-04-03T14:44:40;13.40;84.60
60293;DHT22;52402;52.670;6.750;2023-04-03T14:47:13;13.50;85.50
60293;DHT22;52402;52.670;6.750;2023-04-03T14:49:44;13.50;85.30
60293;DHT22;52402;52.670;6.750;2023-04-03T14:52:22;13.50;84.90
60293;DHT22;52402;52.670;6.750;2023-04-03T14:54:54;13.60;85.50
60293;DHT22;52402;52.670;6.750;2023-04-03T14:57:24;13.50;82.00
60293;DHT22;52402;52.670;6.750;2023-04-03T14:59:50;13.50;82.00
60293;DHT22;52402;52.670;6.750;2023-04-03T15:02:39;13.60;84.00
60293;DHT22;52402;52.670;6.750;2023-04-03T15:05:11;13.60;82.90
60293;DHT22;52402;52.670;6.750;2023-04-03T15:07:52;13.50;83.00
60293;DHT22;52402;52.670;6.750;2023-04-03T15:10:22;13.40;83.10
60293;DHT22;52402;52.670;6.750;2023-04-03T15:12:53;13.20;82.50
60293;DHT22;52402;52.670;6.750;2023-04-03T15:15:26;13.30;83.40
60293;DHT22;52402;52.670;6.750;2023-04-03T15:17:57;13.50;82.70
60293;DHT22;52402;52.670;6.750;2023-04-03T15:20:28;13.40;82.30
60293;DHT22;52402;52.670;6.750;2023-04-03T15:22:58;13.50;82.40
60293;DHT22;52402;52.670;6.750;2023-04-03T15:25:30;13.50;82.10
60293;DHT22;52402;52.670;6.750;2023-04-03T15:28:04;13.40;82.40
60293;DHT22;52402;52.670;6.750;2023-04-03T15:30:32;13.40;82.40
60293;DHT22;52402;52.670;6.750;2023-04-03T15:33:00;13.50;83.20
60293;DHT22;52402;52.670;6.750;2023-04-03T15:35:29;13.70;83.90
60293;DHT22;52402;52.670;6.750;2023-04-03T15:37:58;13.70;81.00
60293;DHT22;52402;52.670;6.750;2023-04-03T15:40:31;13.70;81.00
60293;DHT22;52402;52.670;6.750;2023-04-03T15:43:02;13.60;80.70
60293;DHT22;52402;52.670;6.750;2023-04-03T15:45:33;13.40;79.70
60293;DHT22;52402;52.670;6.750;2023-04-03T15:48:02;13.40;78.30
60293;DHT22;52402;52.670;6.750;2023-04-03T15:50:33;13.40;79.80
60293;DHT22;52402;52.670;6.750;2023-04-03T15:53:01;13.40;80.40
60293;DHT22;52402;52.670;6.750;2023-04-03T15:55:33;13.20;81.30
60293;DHT22;52402;52.670;6.750;2023-04-03T15:58:05;13.20;80.70
60293;DHT22;52402;52.670;6.750;2023-04-03T16:00:33;13.00;80.70
60293;DHT22;52402;52.670;6.750;2023-04-03T16:03:12;12.90;80.00
60293;DHT22;52402;52.670;6.750;2023-04-03T16:05:47;13.00;82.10
60293;DHT22;52402;52.670;6.750;2023-04-03T16:08:15;13.00;82.00
60293;DHT22;52402;52.670;6.750;2023-04-03T16:10:47;13.00;83.20
60293;DHT22;52402;52.670;6.750;2023-04-03T16:13:20;12.80;80.40
60293;DHT22;52402;52.670;6.750;2023-04-03T16:15:47;12.80;80.50
60293;DHT22;52402;52.670;6.750;2023-04-03T16:18:15;12.50;79.70
60293;DHT22;52402;52.670;6.750;2023-04-03T16:20:45;12.20;79.20
60293;DHT22;52402;52.670;6.750;2023-04-03T16:23:14;12.10;81.40
60293;DHT22;52402;52.670;6.750;2023-04-03T16:25:44;12.00;82.00
60293;DHT22;52402;52.670;6.750;2023-04-03T16:28:12;11.90;81.10
60293;DHT22;52402;52.670;6.750;2023-04-03T16:30:46;11.90;81.60
60293;DHT22;52402;52.670;6.750;2023-04-03T16:33:19;11.80;81.20
60293;DHT22;52402;52.670;6.750;2023-04-03T16:36:00;11.70;81.50
60293;DHT22;52402;52.670;6.750;2023-04-03T16:38:30;11.30;79.90
60293;DHT22;52402;52.670;6.750;2023-04-03T16:41:00;11.20;82.00
60293;DHT22;52402;52.670;6.750;2023-04-03T16:43:34;11.00;82.10
60293;DHT22;52402;52.670;6.750;2023-04-03T16:46:03;10.90;82.80
60293;DHT22;52402;52.670;6.750;2023-04-03T16:48:31;10.90;83.40
60293;DHT22;52402;52.670;6.750;2023-04-03T16:51:00;10.90;83.50
60293;DHT22;52402;52.670;6.750;2023-04-03T16:53:30;10.70;84.20
60293;DHT22;52402;52.670;6.750;2023-04-03T16:56:05;10.70;85.20
60293;DHT22;52402;52.670;6.750;2023-04-03T16:58:33;10.60;85.20
60293;DHT22;52402;52.670;6.750;2023-04-03T17:01:17;10.40;83.00
60293;DHT22;52402;52.670;6.750;2023-04-03T17:03:45;10.40;83.70
60293;DHT22;52402;52.670;6.750;2023-04-03T17:06:15;10.30;83.80
60293;DHT22;52402;52.670;6.750;2023-04-03T17:08:49;10.30;84.50
60293;DHT22;52402;52.670;6.750;2023-04-03T17:11:20;10.20;83.90